sensor_id;sensor_type;location;lat;lon;timestamp;temperature;humidity
44229;DHT22;29904;51.058;5.378;2023-08-31T00:02:30;11.90;99.90
44229;DHT22;29904;51.058;5.378;2023-08-31T00:04:58;11.80;99.90
44229;DHT22;29904;51.058;5.378;2023-08-31T00:07:24;11.80;99.90
44229;DHT22;29904;51.058;5.378;2023-08-31T00:09:49;11.80;99.90
44229;DHT22;29904;51.058;5.378;2023-08-31T00:12:17;11.80;99.90
44229;DHT22;29904;51.058;5.378;2023-08-31T00:14:45;11.80;99.90
44229;DHT22;29904;51.058;5.378;2023-08-31T00:17:10;11.70;99.90
44229;DHT22;29904;51.058;5.378;2023-08-31T00:19:36;11.70;99.90
44229;DHT22;29904;51.058;5.378;2023-08-31T00:22:02;11.70;99.90
44229;DHT22;29904;51.058;5.378;2023-08-31T00:24:29;11.60;99.90
44229;DHT22;29904;51.058;5.378;2023-08-31T00:26:55;11.60;99.90
44229;DHT22;29904;51.058;5.378;2023-08-31T00:29:21;11.60;99.90
44229;DHT22;29904;51.058;5.378;2023-08-31T00:31:48;11.50;99.90
44229;DHT22;29904;51.058;5.378;2023-08-31T00:34:15;11.50;99.90
44229;DHT22;29904;51.058;5.378;2023-08-31T00:36:45;11.50;99.90
44229;DHT22;29904;51.058;5.378;2023-08-31T00:39:10;11.50;99.90
44229;DHT22;29904;51.058;5.378;2023-08-31T00:41:37;11.50;99.90
44229;DHT22;29904;51.058;5.378;2023-08-31T00:44:03;11.50;99.90
44229;DHT22;29904;51.058;5.378;2023-08-31T00:46:33;11.40;99.90
44229;DHT22;29904;51.058;5.378;2023-08-31T00:48:59;11.40;99.90
44229;DHT22;29904;51.058;5.378;2023-08-31T00:51:27;11.40;99.90
44229;DHT22;29904;51.058;5.378;2023-08-31T00:53:53;11.40;99.90
44229;DHT22;29904;51.058;5.378;2023-08-31T00:56:20;11.30;99.90
44229;DHT22;29904;51.058;5.378;2023-08-31T00:58:55;11.30;99.90
44229;DHT22;29904;51.058;5.378;2023-08-31T01:01:41;11.30;99.90
44229;DHT22;29904;51.058;5.378;2023-08-31T01:04:24;11.30;99.90
44229;DHT22;29904;51.058;5.378;2023-08-31T01:09:40;11.30;99.90
44229;DHT22;29904;51.058;5.378;2023-08-31T01:12:22;11.30;99.90
44229;DHT22;29904;51.058;5.378;2023-08-31T01:15:06;11.20;99.90
44229;DHT22;29904;51.058;5.378;2023-08-31T01:17:40;11.20;99.90
44229;DHT22;29904;51.058;5.378;2023-08-31T01:20:10;11.20;99.90
44229;DHT22;29904;51.058;5.378;2023-08-31T01:22:43;11.20;99.90
44229;DHT22;29904;51.058;5.378;2023-08-31T01:25:10;11.20;99.90
44229;DHT22;29904;51.058;5.378;2023-08-31T01:27:37;11.10;99.90
44229;DHT22;29904;51.058;5.378;2023-08-31T01:30:04;11.10;99.90
44229;DHT22;29904;51.058;5.378;2023-08-31T01:32:31;11.10;99.90
44229;DHT22;29904;51.058;5.378;2023-08-31T01:34:57;11.10;99.90
44229;DHT22;29904;51.058;5.378;2023-08-31T01:37:48;11.10;99.90
44229;DHT22;29904;51.058;5.378;2023-08-31T01:40:38;11.10;99.90
44229;DHT22;29904;51.058;5.378;2023-08-31T01:43:05;11.10;99.90
44229;DHT22;29904;51.058;5.378;2023-08-31T01:45:32;11.10;99.90
44229;DHT22;29904;51.058;5.378;2023-08-31T01:48:03;11.10;99.90
44229;DHT22;29904;51.058;5.378;2023-08-31T01:50:38;11.00;99.90
44229;DHT22;29904;51.058;5.378;2023-08-31T01:53:03;11.00;99.90
44229;DHT22;29904;51.058;5.378;2023-08-31T01:55:32;11.00;99.90
44229;DHT22;29904;51.058;5.378;2023-08-31T01:57:59;11.00;99.90
44229;DHT22;29904;51.058;5.378;2023-08-31T02:00:26;11.00;99.90
44229;DHT22;29904;51.058;5.378;2023-08-31T02:02:52;11.00;99.90
44229;DHT22;29904;51.058;5.378;2023-08-31T02:05:17;10.90;99.90
44229;DHT22;29904;51.058;5.378;2023-08-31T02:07:43;11.00;99.90
44229;DHT22;29904;51.058;5.378;2023-08-31T02:10:11;10.90;99.90
44229;DHT22;29904;51.058;5.378;2023-08-31T02:12:37;10.80;99.90
44229;DHT22;29904;51.058;5.378;2023-08-31T02:15:06;10.90;99.90
44229;DHT22;29904;51.058;5.378;2023-08-31T02:17:35;10.90;99.90
44229;DHT22;29904;51.058;5.378;2023-08-31T02:20:01;10.90;99.90
44229;DHT22;29904;51.058;5.378;2023-08-31T02:22:34;10.80;99.90
44229;DHT22;29904;51.058;5.378;2023-08-31T02:25:00;10.80;99.90
44229;DHT22;29904;51.058;5.378;2023-08-31T02:27:27;10.80;99.90
44229;DHT22;29904;51.058;5.378;2023-08-31T02:29:53;10.80;99.90
44229;DHT22;29904;51.058;5.378;2023-08-31T02:32:19;10.70;99.90
44229;DHT22;29904;51.058;5.378;2023-08-31T02:34:46;10.70;99.90
44229;DHT22;29904;51.058;5.378;2023-08-31T02:37:14;10.70;99.90
44229;DHT22;29904;51.058;5.378;2023-08-31T02:39:40;10.70;99.90
44229;DHT22;29904;51.058;5.378;2023-08-31T02:42:05;10.70;99.90
44229;DHT22;29904;51.058;5.378;2023-08-31T02:44:32;10.70;99.90
44229;DHT22;29904;51.058;5.378;2023-08-31T02:46:57;10.70;99.90
44229;DHT22;29904;51.058;5.378;2023-08-31T02:49:25;10.60;99.90
44229;DHT22;29904;51.058;5.378;2023-08-31T02:51:51;10.60;99.90
44229;DHT22;29904;51.058;5.378;2023-08-31T02:54:16;10.60;99.90
44229;DHT22;29904;51.058;5.378;2023-08-31T02:56:44;10.60;99.90
44229;DHT22;29904;51.058;5.378;2023-08-31T02:59:10;10.60;99.90
44229;DHT22;29904;51.058;5.378;2023-08-31T03:01:35;10.60;99.90
44229;DHT22;29904;51.058;5.378;2023-08-31T03:04:01;10.60;99.90
44229;DHT22;29904;51.058;5.378;2023-08-31T03:06:28;10.50;99.90
44229;DHT22;29904;51.058;5.378;2023-08-31T03:08:56;10.50;99.90
44229;DHT22;29904;51.058;5.378;2023-08-31T03:11:22;10.50;99.90
44229;DHT22;29904;51.058;5.378;2023-08-31T03:13:50;10.50;99.90
44229;DHT22;29904;51.058;5.378;2023-08-31T03:16:15;10.40;99.90
44229;DHT22;29904;51.058;5.378;2023-08-31T03:18:41;10.40;99.90
44229;DHT22;29904;51.058;5.378;2023-08-31T03:21:09;10.40;99.90
44229;DHT22;29904;51.058;5.378;2023-08-31T03:23:34;10.40;99.90
44229;DHT22;29904;51.058;5.378;2023-08-31T03:26:06;10.40;99.90
44229;DHT22;29904;51.058;5.378;2023-08-31T03:28:34;10.40;99.90
44229;DHT22;29904;51.058;5.378;2023-08-31T03:31:04;10.40;99.90
44229;DHT22;29904;51.058;5.378;2023-08-31T03:33:29;10.40;99.90
44229;DHT22;29904;51.058;5.378;2023-08-31T03:36:04;10.40;99.90
44229;DHT22;29904;51.058;5.378;2023-08-31T03:38:33;10.40;99.90
44229;DHT22;29904;51.058;5.378;2023-08-31T03:41:03;10.40;99.90
44229;DHT22;29904;51.058;5.378;2023-08-31T03:43:29;10.40;99.90
44229;DHT22;29904;51.058;5.378;2023-08-31T03:45:56;10.40;99.90
44229;DHT22;29904;51.058;5.378;2023-08-31T03:48:28;10.40;99.90
44229;DHT22;29904;51.058;5.378;2023-08-31T03:50:54;10.40;99.90
44229;DHT22;29904;51.058;5.378;2023-08-31T03:53:20;10.40;99.90
44229;DHT22;29904;51.058;5.378;2023-08-31T03:55:48;10.40;99.90
44229;DHT22;29904;51.058;5.378;2023-08-31T03:58:13;10.40;99.90
44229;DHT22;29904;51.058;5.378;2023-08-31T04:00:39;10.40;99.90
44229;DHT22;29904;51.058;5.378;2023-08-31T04:03:05;10.40;99.90
44229;DHT22;29904;51.058;5.378;2023-08-31T04:05:35;10.40;99.90
44229;DHT22;29904;51.058;5.378;2023-08-31T04:08:01;10.30;99.90
44229;DHT22;29904;51.058;5.378;2023-08-31T04:10:28;10.30;99.90
44229;DHT22;29904;51.058;5.378;2023-08-31T04:12:55;10.30;99.90
44229;DHT22;29904;51.058;5.378;2023-08-31T04:15:21;10.30;99.90
44229;DHT22;29904;51.058;5.378;2023-08-31T04:17:47;10.30;99.90
44229;DHT22;29904;51.058;5.378;2023-08-31T04:20:13;10.30;99.90
44229;DHT22;29904;51.058;5.378;2023-08-31T04:22:38;10.30;99.90
44229;DHT22;29904;51.058;5.378;2023-08-31T04:25:04;10.20;99.90
44229;DHT22;29904;51.058;5.378;2023-08-31T04:27:30;10.20;99.90
44229;DHT22;29904;51.058;5.378;2023-08-31T04:30:00;10.20;99.90
44229;DHT22;29904;51.058;5.378;2023-08-31T04:32:28;10.20;99.90
44229;DHT22;29904;51.058;5.378;2023-08-31T04:34:53;10.20;99.90
44229;DHT22;29904;51.058;5.378;2023-08-31T04:37:20;10.20;99.90
44229;DHT22;29904;51.058;5.378;2023-08-31T04:39:46;10.20;99.90
44229;DHT22;29904;51.058;5.378;2023-08-31T04:42:12;10.20;99.90
44229;DHT22;29904;51.058;5.378;2023-08-31T04:44:38;10.20;99.90
44229;DHT22;29904;51.058;5.378;2023-08-31T04:47:04;10.20;99.90
44229;DHT22;29904;51.058;5.378;2023-08-31T04:49:29;10.20;99.90
44229;DHT22;29904;51.058;5.378;2023-08-31T04:51:56;10.20;99.90
44229;DHT22;29904;51.058;5.378;2023-08-31T04:54:24;10.20;99.90
44229;DHT22;29904;51.058;5.378;2023-08-31T04:56:51;10.20;99.90
44229;DHT22;29904;51.058;5.378;2023-08-31T04:59:17;10.20;99.90
44229;DHT22;29904;51.058;5.378;2023-08-31T05:01:43;10.20;99.90
44229;DHT22;29904;51.058;5.378;2023-08-31T05:04:09;10.20;99.90
44229;DHT22;29904;51.058;5.378;2023-08-31T05:06:34;10.20;99.90
44229;DHT22;29904;51.058;5.378;2023-08-31T05:09:02;10.30;99.90
44229;DHT22;29904;51.058;5.378;2023-08-31T05:11:31;10.30;99.90
44229;DHT22;29904;51.058;5.378;2023-08-31T05:13:57;10.30;99.90
44229;DHT22;29904;51.058;5.378;2023-08-31T05:16:24;10.40;99.90
44229;DHT22;29904;51.058;5.378;2023-08-31T05:18:50;10.40;99.90
44229;DHT22;29904;51.058;5.378;2023-08-31T05:21:16;10.40;99.90
44229;DHT22;29904;51.058;5.378;2023-08-31T05:23:43;10.50;99.90
44229;DHT22;29904;51.058;5.378;2023-08-31T05:26:09;10.50;99.90
44229;DHT22;29904;51.058;5.378;2023-08-31T05:28:34;10.60;99.90
44229;DHT22;29904;51.058;5.378;2023-08-31T05:31:01;10.60;99.90
44229;DHT22;29904;51.058;5.378;2023-08-31T05:33:28;10.60;99.90
44229;DHT22;29904;51.058;5.378;2023-08-31T05:35:54;10.70;99.90
44229;DHT22;29904;51.058;5.378;2023-08-31T05:38:20;10.80;99.90
44229;DHT22;29904;51.058;5.378;2023-08-31T05:40:46;10.90;99.90
44229;DHT22;29904;51.058;5.378;2023-08-31T05:43:16;11.10;99.90
44229;DHT22;29904;51.058;5.378;2023-08-31T05:45:42;11.40;99.90
44229;DHT22;29904;51.058;5.378;2023-08-31T05:48:08;11.60;99.90
44229;DHT22;29904;51.058;5.378;2023-08-31T05:50:34;11.70;99.90
44229;DHT22;29904;51.058;5.378;2023-08-31T05:53:04;11.90;99.90
44229;DHT22;29904;51.058;5.378;2023-08-31T05:55:30;12.00;99.90
44229;DHT22;29904;51.058;5.378;2023-08-31T05:57:58;12.00;99.90
44229;DHT22;29904;51.058;5.378;2023-08-31T06:00:23;12.10;99.90
44229;DHT22;29904;51.058;5.378;2023-08-31T06:02:49;12.40;99.90
44229;DHT22;29904;51.058;5.378;2023-08-31T06:05:15;12.60;99.90
44229;DHT22;29904;51.058;5.378;2023-08-31T06:07:44;12.60;99.90
44229;DHT22;29904;51.058;5.378;2023-08-31T06:10:09;12.70;99.90
44229;DHT22;29904;51.058;5.378;2023-08-31T06:12:36;12.70;99.90
44229;DHT22;29904;51.058;5.378;2023-08-31T06:15:02;12.70;99.90
44229;DHT22;29904;51.058;5.378;2023-08-31T06:17:28;12.70;99.90
44229;DHT22;29904;51.058;5.378;2023-08-31T06:19:56;12.70;99.90
44229;DHT22;29904;51.058;5.378;2023-08-31T06:22:21;12.70;99.90
44229;DHT22;29904;51.058;5.378;2023-08-31T06:24:49;12.80;99.90
44229;DHT22;29904;51.058;5.378;2023-08-31T06:27:15;12.90;99.90
44229;DHT22;29904;51.058;5.378;2023-08-31T06:29:43;13.10;99.90
44229;DHT22;29904;51.058;5.378;2023-08-31T06:32:08;13.20;99.90
44229;DHT22;29904;51.058;5.378;2023-08-31T06:34:34;13.20;99.90
44229;DHT22;29904;51.058;5.378;2023-08-31T06:37:00;13.10;99.90
44229;DHT22;29904;51.058;5.378;2023-08-31T06:39:26;13.10;99.90
44229;DHT22;29904;51.058;5.378;2023-08-31T06:41:52;13.20;99.90
44229;DHT22;29904;51.058;5.378;2023-08-31T06:44:17;13.30;99.90
44229;DHT22;29904;51.058;5.378;2023-08-31T06:46:43;13.30;99.90
44229;DHT22;29904;51.058;5.378;2023-08-31T06:49:09;13.40;99.90
44229;DHT22;29904;51.058;5.378;2023-08-31T06:51:35;13.40;99.90
44229;DHT22;29904;51.058;5.378;2023-08-31T06:54:02;13.50;99.90
44229;DHT22;29904;51.058;5.378;2023-08-31T06:56:34;13.50;99.90
44229;DHT22;29904;51.058;5.378;2023-08-31T06:59:00;13.60;99.90
44229;DHT22;29904;51.058;5.378;2023-08-31T07:01:28;13.60;99.90
44229;DHT22;29904;51.058;5.378;2023-08-31T07:03:54;13.70;99.90
44229;DHT22;29904;51.058;5.378;2023-08-31T07:06:20;13.80;99.90
44229;DHT22;29904;51.058;5.378;2023-08-31T07:08:46;14.00;99.90
44229;DHT22;29904;51.058;5.378;2023-08-31T07:11:13;14.20;99.90
44229;DHT22;29904;51.058;5.378;2023-08-31T07:13:40;14.40;99.90
44229;DHT22;29904;51.058;5.378;2023-08-31T07:16:05;14.50;99.90
44229;DHT22;29904;51.058;5.378;2023-08-31T07:18:31;14.70;99.90
44229;DHT22;29904;51.058;5.378;2023-08-31T07:20:57;14.70;99.90
44229;DHT22;29904;51.058;5.378;2023-08-31T07:23:23;14.70;99.90
44229;DHT22;29904;51.058;5.378;2023-08-31T07:25:49;14.80;99.90
44229;DHT22;29904;51.058;5.378;2023-08-31T07:28:15;14.90;99.90
44229;DHT22;29904;51.058;5.378;2023-08-31T07:30:40;14.90;99.90
44229;DHT22;29904;51.058;5.378;2023-08-31T07:33:08;15.00;99.90
44229;DHT22;29904;51.058;5.378;2023-08-31T07:35:35;15.00;99.90
44229;DHT22;29904;51.058;5.378;2023-08-31T07:38:01;15.00;99.90
44229;DHT22;29904;51.058;5.378;2023-08-31T07:40:27;15.00;99.90
44229;DHT22;29904;51.058;5.378;2023-08-31T07:42:52;15.10;99.90
44229;DHT22;29904;51.058;5.378;2023-08-31T07:45:18;15.10;99.90
44229;DHT22;29904;51.058;5.378;2023-08-31T07:47:44;15.10;99.90
44229;DHT22;29904;51.058;5.378;2023-08-31T07:50:10;15.10;99.90
44229;DHT22;29904;51.058;5.378;2023-08-31T07:52:36;15.10;99.90
44229;DHT22;29904;51.058;5.378;2023-08-31T07:55:03;15.20;99.90
44229;DHT22;29904;51.058;5.378;2023-08-31T07:57:29;15.30;99.90
44229;DHT22;29904;51.058;5.378;2023-08-31T07:59:55;15.30;99.90
44229;DHT22;29904;51.058;5.378;2023-08-31T08:02:21;15.40;99.90
44229;DHT22;29904;51.058;5.378;2023-08-31T08:04:46;15.50;99.90
44229;DHT22;29904;51.058;5.378;2023-08-31T08:07:12;15.50;99.90
44229;DHT22;29904;51.058;5.378;2023-08-31T08:09:38;15.50;99.90
44229;DHT22;29904;51.058;5.378;2023-08-31T08:12:04;15.50;99.90
44229;DHT22;29904;51.058;5.378;2023-08-31T08:14:30;15.60;99.90
44229;DHT22;29904;51.058;5.378;2023-08-31T08:16:55;15.60;99.90
44229;DHT22;29904;51.058;5.378;2023-08-31T08:19:22;15.70;99.90
44229;DHT22;29904;51.058;5.378;2023-08-31T08:21:49;15.70;99.90
44229;DHT22;29904;51.058;5.378;2023-08-31T08:24:15;15.80;99.90
44229;DHT22;29904;51.058;5.378;2023-08-31T08:26:41;15.90;99.90
44229;DHT22;29904;51.058;5.378;2023-08-31T08:29:08;15.90;99.90
44229;DHT22;29904;51.058;5.378;2023-08-31T08:31:34;16.00;99.90
44229;DHT22;29904;51.058;5.378;2023-08-31T08:34:00;16.00;99.90
44229;DHT22;29904;51.058;5.378;2023-08-31T08:36:26;16.10;99.90
44229;DHT22;29904;51.058;5.378;2023-08-31T08:38:52;16.20;99.90
44229;DHT22;29904;51.058;5.378;2023-08-31T08:41:23;16.30;99.90
44229;DHT22;29904;51.058;5.378;2023-08-31T08:43:51;16.40;99.90
44229;DHT22;29904;51.058;5.378;2023-08-31T08:46:17;16.60;99.90
44229;DHT22;29904;51.058;5.378;2023-08-31T08:48:44;16.70;99.90
44229;DHT22;29904;51.058;5.378;2023-08-31T08:51:12;17.10;99.90
44229;DHT22;29904;51.058;5.378;2023-08-31T08:53:43;17.50;99.90
44229;DHT22;29904;51.058;5.378;2023-08-31T08:56:08;17.80;99.90
44229;DHT22;29904;51.058;5.378;2023-08-31T08:58:36;17.90;99.90
44229;DHT22;29904;51.058;5.378;2023-08-31T09:01:04;18.00;99.90
44229;DHT22;29904;51.058;5.378;2023-08-31T09:03:34;18.10;99.90
44229;DHT22;29904;51.058;5.378;2023-08-31T09:06:00;18.20;99.90
44229;DHT22;29904;51.058;5.378;2023-08-31T09:08:28;18.30;99.90
44229;DHT22;29904;51.058;5.378;2023-08-31T09:10:57;18.40;99.90
44229;DHT22;29904;51.058;5.378;2023-08-31T09:13:27;18.40;99.90
44229;DHT22;29904;51.058;5.378;2023-08-31T09:15:55;18.60;99.90
44229;DHT22;29904;51.058;5.378;2023-08-31T09:18:28;18.80;99.90
44229;DHT22;29904;51.058;5.378;2023-08-31T09:20:54;18.80;99.90
44229;DHT22;29904;51.058;5.378;2023-08-31T09:23:24;18.70;99.90
44229;DHT22;29904;51.058;5.378;2023-08-31T09:25:52;18.70;99.90
44229;DHT22;29904;51.058;5.378;2023-08-31T09:28:25;18.90;99.90
44229;DHT22;29904;51.058;5.378;2023-08-31T09:31:14;19.10;99.90
44229;DHT22;29904;51.058;5.378;2023-08-31T09:33:52;19.30;99.90
44229;DHT22;29904;51.058;5.378;2023-08-31T09:36:20;19.40;99.90
44229;DHT22;29904;51.058;5.378;2023-08-31T09:38:46;19.40;99.90
44229;DHT22;29904;51.058;5.378;2023-08-31T09:41:12;19.40;99.90
44229;DHT22;29904;51.058;5.378;2023-08-31T09:43:37;19.50;99.90
44229;DHT22;29904;51.058;5.378;2023-08-31T09:46:04;19.40;99.90
44229;DHT22;29904;51.058;5.378;2023-08-31T09:48:31;19.40;99.90
44229;DHT22;29904;51.058;5.378;2023-08-31T09:50:57;19.20;99.90
44229;DHT22;29904;51.058;5.378;2023-08-31T09:53:29;19.00;99.90
44229;DHT22;29904;51.058;5.378;2023-08-31T09:55:56;19.10;99.90
44229;DHT22;29904;51.058;5.378;2023-08-31T09:58:23;19.30;99.90
44229;DHT22;29904;51.058;5.378;2023-08-31T10:00:51;19.30;99.90
44229;DHT22;29904;51.058;5.378;2023-08-31T10:03:18;19.30;99.90
44229;DHT22;29904;51.058;5.378;2023-08-31T10:05:45;19.60;99.90
44229;DHT22;29904;51.058;5.378;2023-08-31T10:08:13;19.90;99.90
44229;DHT22;29904;51.058;5.378;2023-08-31T10:10:40;19.90;99.90
44229;DHT22;29904;51.058;5.378;2023-08-31T10:13:06;20.00;99.90
44229;DHT22;29904;51.058;5.378;2023-08-31T10:15:33;20.10;99.90
44229;DHT22;29904;51.058;5.378;2023-08-31T10:18:00;20.10;99.90
44229;DHT22;29904;51.058;5.378;2023-08-31T10:20:26;20.10;99.90
44229;DHT22;29904;51.058;5.378;2023-08-31T10:23:06;20.10;99.90
44229;DHT22;29904;51.058;5.378;2023-08-31T10:28:21;19.90;99.90
44229;DHT22;29904;51.058;5.378;2023-08-31T10:31:10;19.80;99.90
44229;DHT22;29904;51.058;5.378;2023-08-31T10:34:00;19.60;99.90
44229;DHT22;29904;51.058;5.378;2023-08-31T10:36:41;19.60;99.90
44229;DHT22;29904;51.058;5.378;2023-08-31T10:39:18;19.60;99.90
44229;DHT22;29904;51.058;5.378;2023-08-31T10:41:56;19.60;99.90
44229;DHT22;29904;51.058;5.378;2023-08-31T10:44:27;19.60;99.90
44229;DHT22;29904;51.058;5.378;2023-08-31T10:46:54;19.60;99.90
44229;DHT22;29904;51.058;5.378;2023-08-31T10:49:21;19.50;99.90
44229;DHT22;29904;51.058;5.378;2023-08-31T10:52:18;19.40;99.90
44229;DHT22;29904;51.058;5.378;2023-08-31T10:54:45;19.60;99.90
44229;DHT22;29904;51.058;5.378;2023-08-31T10:57:11;20.00;99.90
44229;DHT22;29904;51.058;5.378;2023-08-31T10:59:52;20.60;99.90
44229;DHT22;29904;51.058;5.378;2023-08-31T11:05:14;21.00;99.90
44229;DHT22;29904;51.058;5.378;2023-08-31T11:07:42;21.00;99.90
44229;DHT22;29904;51.058;5.378;2023-08-31T11:12:35;21.00;99.90
44229;DHT22;29904;51.058;5.378;2023-08-31T11:15:00;20.80;99.90
44229;DHT22;29904;51.058;5.378;2023-08-31T11:17:27;20.80;99.90
44229;DHT22;29904;51.058;5.378;2023-08-31T11:19:53;20.90;99.90
44229;DHT22;29904;51.058;5.378;2023-08-31T11:22:21;21.10;99.90
44229;DHT22;29904;51.058;5.378;2023-08-31T11:24:46;21.20;99.90
44229;DHT22;29904;51.058;5.378;2023-08-31T11:27:15;21.10;99.90
44229;DHT22;29904;51.058;5.378;2023-08-31T11:29:44;21.10;99.90
44229;DHT22;29904;51.058;5.378;2023-08-31T11:32:10;21.20;99.90
44229;DHT22;29904;51.058;5.378;2023-08-31T11:34:40;21.10;99.90
44229;DHT22;29904;51.058;5.378;2023-08-31T11:37:07;21.30;99.90
44229;DHT22;29904;51.058;5.378;2023-08-31T11:39:33;21.70;99.90
44229;DHT22;29904;51.058;5.378;2023-08-31T11:42:01;21.80;99.90
44229;DHT22;29904;51.058;5.378;2023-08-31T11:44:35;21.70;99.90
44229;DHT22;29904;51.058;5.378;2023-08-31T11:47:01;21.40;99.90
44229;DHT22;29904;51.058;5.378;2023-08-31T11:49:30;21.50;99.90
44229;DHT22;29904;51.058;5.378;2023-08-31T11:51:55;21.70;99.90
44229;DHT22;29904;51.058;5.378;2023-08-31T11:54:25;22.00;99.90
44229;DHT22;29904;51.058;5.378;2023-08-31T11:56:53;22.10;99.90
44229;DHT22;29904;51.058;5.378;2023-08-31T11:59:19;22.30;99.90
44229;DHT22;29904;51.058;5.378;2023-08-31T12:01:49;22.40;99.90
44229;DHT22;29904;51.058;5.378;2023-08-31T12:04:20;22.30;99.90
44229;DHT22;29904;51.058;5.378;2023-08-31T12:06:46;22.30;99.90
44229;DHT22;29904;51.058;5.378;2023-08-31T12:09:14;22.30;99.90
44229;DHT22;29904;51.058;5.378;2023-08-31T12:11:39;22.30;99.90
44229;DHT22;29904;51.058;5.378;2023-08-31T12:14:25;22.30;99.90
44229;DHT22;29904;51.058;5.378;2023-08-31T12:16:52;22.00;99.90
44229;DHT22;29904;51.058;5.378;2023-08-31T12:19:18;21.60;99.90
44229;DHT22;29904;51.058;5.378;2023-08-31T12:21:46;21.50;99.90
44229;DHT22;29904;51.058;5.378;2023-08-31T12:24:12;21.60;99.90
44229;DHT22;29904;51.058;5.378;2023-08-31T12:26:39;21.70;99.90
44229;DHT22;29904;51.058;5.378;2023-08-31T12:29:06;21.90;99.90
44229;DHT22;29904;51.058;5.378;2023-08-31T12:31:35;22.10;99.90
44229;DHT22;29904;51.058;5.378;2023-08-31T12:34:01;22.30;99.90
44229;DHT22;29904;51.058;5.378;2023-08-31T12:36:30;22.50;99.90
44229;DHT22;29904;51.058;5.378;2023-08-31T12:38:56;22.50;99.90
44229;DHT22;29904;51.058;5.378;2023-08-31T12:41:24;22.60;99.90
44229;DHT22;29904;51.058;5.378;2023-08-31T12:43:56;22.70;99.90
44229;DHT22;29904;51.058;5.378;2023-08-31T12:46:23;22.80;99.90
44229;DHT22;29904;51.058;5.378;2023-08-31T12:48:49;23.00;99.90
44229;DHT22;29904;51.058;5.378;2023-08-31T12:51:16;23.10;99.90
44229;DHT22;29904;51.058;5.378;2023-08-31T12:53:42;22.90;99.90
44229;DHT22;29904;51.058;5.378;2023-08-31T12:56:08;22.80;99.90
44229;DHT22;29904;51.058;5.378;2023-08-31T12:58:35;22.90;99.90
44229;DHT22;29904;51.058;5.378;2023-08-31T13:01:01;23.10;99.90
44229;DHT22;29904;51.058;5.378;2023-08-31T13:03:28;23.10;99.90
44229;DHT22;29904;51.058;5.378;2023-08-31T13:05:55;22.90;99.90
44229;DHT22;29904;51.058;5.378;2023-08-31T13:08:23;22.70;99.90
44229;DHT22;29904;51.058;5.378;2023-08-31T13:10:53;22.90;99.90
44229;DHT22;29904;51.058;5.378;2023-08-31T13:13:19;23.10;99.90
44229;DHT22;29904;51.058;5.378;2023-08-31T13:15:49;23.20;99.90
44229;DHT22;29904;51.058;5.378;2023-08-31T13:18:14;23.50;99.90
44229;DHT22;29904;51.058;5.378;2023-08-31T13:20:40;23.50;99.90
44229;DHT22;29904;51.058;5.378;2023-08-31T13:23:07;23.30;99.90
44229;DHT22;29904;51.058;5.378;2023-08-31T13:25:33;23.20;99.90
44229;DHT22;29904;51.058;5.378;2023-08-31T13:28:02;23.20;99.90
44229;DHT22;29904;51.058;5.378;2023-08-31T13:30:29;23.10;99.90
44229;DHT22;29904;51.058;5.378;2023-08-31T13:32:57;22.90;99.90
44229;DHT22;29904;51.058;5.378;2023-08-31T13:35:22;22.80;99.90
44229;DHT22;29904;51.058;5.378;2023-08-31T13:37:48;22.60;99.90
44229;DHT22;29904;51.058;5.378;2023-08-31T13:40:14;22.50;99.90
44229;DHT22;29904;51.058;5.378;2023-08-31T13:43:01;22.40;99.90
44229;DHT22;29904;51.058;5.378;2023-08-31T13:45:32;22.40;99.90
44229;DHT22;29904;51.058;5.378;2023-08-31T13:47:59;22.40;99.90
44229;DHT22;29904;51.058;5.378;2023-08-31T13:50:30;22.40;99.90
44229;DHT22;29904;51.058;5.378;2023-08-31T13:52:55;22.20;99.90
44229;DHT22;29904;51.058;5.378;2023-08-31T13:55:21;22.00;99.90
44229;DHT22;29904;51.058;5.378;2023-08-31T13:57:49;21.80;99.90
44229;DHT22;29904;51.058;5.378;2023-08-31T14:00:15;21.90;99.90
44229;DHT22;29904;51.058;5.378;2023-08-31T14:02:42;22.00;99.90
44229;DHT22;29904;51.058;5.378;2023-08-31T14:05:09;22.30;99.90
44229;DHT22;29904;51.058;5.378;2023-08-31T14:07:36;22.60;99.90
44229;DHT22;29904;51.058;5.378;2023-08-31T14:10:04;23.00;99.90
44229;DHT22;29904;51.058;5.378;2023-08-31T14:12:33;23.20;99.90
44229;DHT22;29904;51.058;5.378;2023-08-31T14:14:59;23.20;99.90
44229;DHT22;29904;51.058;5.378;2023-08-31T14:17:28;23.00;99.90
44229;DHT22;29904;51.058;5.378;2023-08-31T14:19:54;22.70;99.90
44229;DHT22;29904;51.058;5.378;2023-08-31T14:22:20;22.30;99.90
44229;DHT22;29904;51.058;5.378;2023-08-31T14:24:47;22.00;99.90
44229;DHT22;29904;51.058;5.378;2023-08-31T14:27:17;21.70;99.90
44229;DHT22;29904;51.058;5.378;2023-08-31T14:29:43;21.50;99.90
44229;DHT22;29904;51.058;5.378;2023-08-31T14:32:08;21.30;99.90
44229;DHT22;29904;51.058;5.378;2023-08-31T14:34:34;21.20;99.90
44229;DHT22;29904;51.058;5.378;2023-08-31T14:37:00;21.20;99.90
44229;DHT22;29904;51.058;5.378;2023-08-31T14:39:26;21.30;99.90
44229;DHT22;29904;51.058;5.378;2023-08-31T14:41:56;21.40;99.90
44229;DHT22;29904;51.058;5.378;2023-08-31T14:44:23;21.50;99.90
44229;DHT22;29904;51.058;5.378;2023-08-31T14:46:51;21.50;99.90
44229;DHT22;29904;51.058;5.378;2023-08-31T14:49:17;21.60;99.90
44229;DHT22;29904;51.058;5.378;2023-08-31T14:51:42;21.70;99.90
44229;DHT22;29904;51.058;5.378;2023-08-31T14:54:09;21.70;99.90
44229;DHT22;29904;51.058;5.378;2023-08-31T14:56:36;21.60;99.90
44229;DHT22;29904;51.058;5.378;2023-08-31T14:59:02;21.40;99.90
44229;DHT22;29904;51.058;5.378;2023-08-31T15:01:28;21.40;99.90
44229;DHT22;29904;51.058;5.378;2023-08-31T15:03:54;21.30;99.90
44229;DHT22;29904;51.058;5.378;2023-08-31T15:06:22;21.30;99.90
44229;DHT22;29904;51.058;5.378;2023-08-31T15:08:47;21.30;99.90
44229;DHT22;29904;51.058;5.378;2023-08-31T15:11:13;21.30;99.90
44229;DHT22;29904;51.058;5.378;2023-08-31T15:13:39;21.30;99.90
44229;DHT22;29904;51.058;5.378;2023-08-31T15:16:05;21.40;99.90
44229;DHT22;29904;51.058;5.378;2023-08-31T15:18:30;21.40;99.90
44229;DHT22;29904;51.058;5.378;2023-08-31T15:20:58;21.30;99.90
44229;DHT22;29904;51.058;5.378;2023-08-31T15:23:25;21.30;99.90
44229;DHT22;29904;51.058;5.378;2023-08-31T15:25:51;21.20;99.90
44229;DHT22;29904;51.058;5.378;2023-08-31T15:28:17;21.20;99.90
44229;DHT22;29904;51.058;5.378;2023-08-31T15:30:45;21.20;99.90
44229;DHT22;29904;51.058;5.378;2023-08-31T15:33:10;21.20;99.90
44229;DHT22;29904;51.058;5.378;2023-08-31T15:35:36;21.20;99.90
44229;DHT22;29904;51.058;5.378;2023-08-31T15:38:03;21.30;99.90
44229;DHT22;29904;51.058;5.378;2023-08-31T15:40:31;21.30;99.90
44229;DHT22;29904;51.058;5.378;2023-08-31T15:42:57;21.20;99.90
44229;DHT22;29904;51.058;5.378;2023-08-31T15:45:23;21.10;99.90